Connellsville, PA (15425)

3:06 PM EDT on August 28, 2016 (GMT -0400)
Residential | | Change Station

Elev 1050 ft 40.04 °N, 79.56 °W | Updated 49 seconds ago

Partly Cloudy
Partly Cloudy
92.8 °F
Feels Like 105 °F
N
3.2
Wind Variable Wind from South

Today
High -- | Low -- °F
--% Chance of Precip.
Yesterday
High -- | Low -- °F
Precip. -- in
Pressure 30.21 in
Visibility 15.0 miles
Clouds Few 8000 ft
Heat Index 105 °F
Dew Point 76 °F
Humidity 58%
Rainfall 0.00 in
Snow Depth Not available.
6:42 AM 7:55 PM
Waning Crescent, 14% visible
METAR KLBE 281848Z 27006KT 15SM FEW080 31/24 A3021
Pressure 30.21 in
Visibility 15.0 miles
Clouds Few 8000 ft
Heat Index 105 °F
Dew Point 76 °F
Humidity 58%
Rainfall 0.00 in
Snow Depth Not available.
6:42 AM 7:55 PM
Waning Crescent, 14% visible
METAR KLBE 281848Z 27006KT 15SM FEW080 31/24 A3021

10-Day Weather Forecast

Almanac

Astronomy

Aug. 28, 2016 Rise Set
Actual Time
Civil Twilight
Nautical Twilight
Astronomical Twilight
Moon
Length of Visible Light
Length of Day
Tomorrow will be .
, % of the Moon is Illuminated

Today's Extremes

State Highs State Lows

Community

WunderPhotos

Upload Photos

1,935,660 photos uploaded!

WunderBlog® & News

Nearby

Air Quality

  Air Quality AQ Index Pollutant
Not available.

Snow Depth

Station Depth Elevation

Earthquake Activity

City Distance Mag. Time & Date
Minimum magnitude displayed is 2.5.

Coastal Water Temperatures

Place Temperature

Stations

Nearby Weather Stations

Station Location Temp. Windchill Dew Point Humidity Wind Precip. Elev Updated Type
                   

Watches & Warnings

There are currently no watches in effect.